Time;durP1;ratioP1;P1;durP2;ratioP2;P2;SDS_P1;SDS_P2;PMS_P1;PMS_P2;Temp;Humidity;BMP_temperature;BMP_pressure;BME280_temperature;BME280_humidity;BME280_pressure;Samples;Min_cycle;Max_cycle;Signal;HPM_P1;HPM_P2
2023/03/20 00:01:40;;;;;;;10.75;5.30;;;9.10;99.90;;;;;;4938391;29;20227;-76
2023/03/20 00:04:08;;;;;;;12.48;5.72;;;9.10;99.90;;;;;;4937152;29;20222;-75
2023/03/20 00:06:34;;;;;;;9.27;5.63;;;9.10;99.90;;;;;;4953494;29;20699;-75
2023/03/20 00:09:01;;;;;;;11.60;6.13;;;9.10;99.90;;;;;;4921656;29;20283;-80
2023/03/20 00:11:31;;;;;;;17.95;6.07;;;9.10;99.90;;;;;;4938750;29;20194;-77
2023/03/20 00:14:06;;;;;;;12.18;6.50;;;9.00;99.90;;;;;;4939138;29;20181;-81
2023/03/20 00:16:38;;;;;;;11.02;6.00;;;9.00;99.90;;;;;;4938772;29;20206;-80
2023/03/20 00:19:05;;;;;;;10.77;6.07;;;9.00;99.90;;;;;;4937275;29;20186;-76
2023/03/20 00:21:31;;;;;;;13.77;6.05;;;9.00;99.90;;;;;;4938520;29;20183;-76
2023/03/20 00:23:57;;;;;;;10.98;6.30;;;9.00;99.90;;;;;;4938281;29;20182;-80
2023/03/20 00:26:31;;;;;;;12.85;6.40;;;9.00;99.90;;;;;;4938394;29;20261;-75
2023/03/20 00:28:57;;;;;;;12.10;6.43;;;9.00;99.90;;;;;;4938478;29;20282;-79
2023/03/20 00:31:26;;;;;;;11.88;6.80;;;9.00;99.90;;;;;;4953170;29;20225;-75
2023/03/20 00:33:56;;;;;;;13.43;6.50;;;9.00;99.90;;;;;;4938251;29;20176;-76
2023/03/20 00:36:22;;;;;;;14.55;6.70;;;8.90;99.90;;;;;;4937084;29;20297;-75
2023/03/20 00:38:48;;;;;;;9.95;6.18;;;8.90;99.90;;;;;;4953007;29;20198;-77
2023/03/20 00:41:28;;;;;;;8.52;5.53;;;8.90;99.90;;;;;;4938331;29;20549;-75
2023/03/20 00:44:00;;;;;;;12.20;5.88;;;8.90;99.90;;;;;;4952854;28;20183;-76
2023/03/20 00:46:27;;;;;;;12.43;5.60;;;8.90;99.90;;;;;;4938509;29;20175;-75
2023/03/20 00:48:54;;;;;;;9.88;5.45;;;8.90;99.90;;;;;;4953056;29;20198;-76
2023/03/20 00:51:21;;;;;;;9.68;5.68;;;8.90;99.90;;;;;;4937795;29;20266;-76
2023/03/20 00:53:47;;;;;;;12.32;5.60;;;8.80;99.90;;;;;;4938191;29;20702;-75
2023/03/20 00:56:31;;;;;;;8.98;5.95;;;8.80;99.90;;;;;;4952696;29;20183;-76
2023/03/20 00:58:58;;;;;;;11.25;5.60;;;8.80;99.90;;;;;;4938313;29;20171;-79
2023/03/20 01:01:23;;;;;;;11.93;5.60;;;8.80;99.90;;;;;;4936770;29;20228;-77
2023/03/20 01:03:49;;;;;;;10.20;6.05;;;8.80;99.90;;;;;;4938258;29;20231;-75
2023/03/20 01:06:17;;;;;;;15.07;5.88;;;8.80;99.90;;;;;;4937663;29;20242;-75
2023/03/20 01:08:45;;;;;;;11.52;5.63;;;8.80;99.90;;;;;;4937107;29;20286;-76
2023/03/20 01:11:12;;;;;;;15.68;6.20;;;8.80;99.90;;;;;;4936860;29;20191;-75
2023/03/20 01:13:39;;;;;;;9.90;6.05;;;8.80;99.90;;;;;;4937983;29;20185;-76
2023/03/20 01:16:12;;;;;;;11.90;6.07;;;8.80;99.90;;;;;;4937880;29;20184;-76
2023/03/20 01:18:38;;;;;;;10.32;5.80;;;8.80;99.90;;;;;;4952808;29;20187;-77
2023/03/20 01:21:04;;;;;;;9.55;6.00;;;8.80;99.90;;;;;;4938177;29;20193;-76
2023/03/20 01:23:30;;;;;;;12.32;5.85;;;8.80;99.90;;;;;;4940016;29;20183;-76
2023/03/20 01:25:56;;;;;;;12.07;5.90;;;8.80;99.90;;;;;;4938535;29;20188;-76
2023/03/20 01:28:23;;;;;;;12.45;6.30;;;8.80;99.90;;;;;;4953324;29;20544;-78
2023/03/20 01:30:49;;;;;;;14.30;5.80;;;8.80;99.90;;;;;;4921203;29;20278;-76
2023/03/20 01:33:18;;;;;;;12.60;5.90;;;8.80;99.90;;;;;;4937099;29;20183;-77
2023/03/20 01:35:48;;;;;;;10.93;6.13;;;8.80;99.90;;;;;;4936387;29;20183;-77
2023/03/20 01:38:20;;;;;;;10.57;5.72;;;8.80;99.90;;;;;;4937379;29;20211;-77
2023/03/20 01:41:05;;;;;;;12.50;5.70;;;8.80;99.90;;;;;;4936887;29;20190;-77
2023/03/20 01:43:34;;;;;;;11.93;5.93;;;8.80;99.90;;;;;;4953075;29;20178;-78
2023/03/20 01:46:05;;;;;;;18.30;5.93;;;8.80;99.90;;;;;;4951828;28;20345;-79
2023/03/20 01:48:48;;;;;;;11.05;5.28;;;8.80;99.90;;;;;;4936992;29;20210;-77
2023/03/20 01:51:16;;;;;;;12.00;6.07;;;8.80;99.90;;;;;;4952047;28;20183;-78
2023/03/20 01:53:43;;;;;;;14.52;6.50;;;8.80;99.90;;;;;;4935319;29;20202;-77
2023/03/20 01:56:11;;;;;;;11.57;6.10;;;8.80;99.90;;;;;;4952042;29;20188;-77
2023/03/20 01:58:47;;;;;;;18.48;6.80;;;8.80;99.90;;;;;;4935793;29;20718;-77
2023/03/20 02:01:14;;;;;;;13.15;6.68;;;8.80;99.90;;;;;;4935886;29;20175;-78
2023/03/20 02:03:46;;;;;;;17.35;7.38;;;8.80;99.90;;;;;;4935984;29;20254;-77
2023/03/20 02:06:18;;;;;;;22.17;7.22;;;8.80;99.90;;;;;;4936568;29;20218;-76
2023/03/20 02:09:03;;;;;;;16.83;6.82;;;8.80;99.90;;;;;;4936261;29;20618;-80
2023/03/20 02:11:36;;;;;;;13.98;7.28;;;8.80;99.90;;;;;;4953331;29;20184;-81
2023/03/20 02:14:03;;;;;;;17.00;7.70;;;8.80;99.90;;;;;;4951866;28;20183;-81
2023/03/20 02:16:37;;;;;;;18.90;7.97;;;8.80;99.90;;;;;;4951883;28;20217;-78
2023/03/20 02:19:19;;;;;;;18.23;8.02;;;8.80;99.90;;;;;;4951903;28;20183;-78
2023/03/20 02:22:15;;;;;;;20.27;7.88;;;8.80;99.90;;;;;;4936415;29;20179;-77
2023/03/20 02:25:14;;;;;;;14.27;7.53;;;8.80;99.90;;;;;;4935789;29;20183;-78
2023/03/20 02:27:47;;;;;;;17.38;8.07;;;8.80;99.90;;;;;;4951240;29;20266;-78
2023/03/20 02:30:41;;;;;;;16.63;7.82;;;8.80;99.90;;;;;;4951047;29;20270;-78
2023/03/20 02:33:14;;;;;;;19.15;8.52;;;8.80;99.90;;;;;;4951354;29;20186;-78
2023/03/20 02:35:45;;;;;;;15.63;8.45;;;8.80;99.90;;;;;;4951574;28;20638;-78
2023/03/20 02:38:36;;;;;;;14.57;7.95;;;8.80;99.90;;;;;;4936410;29;20250;-81
2023/03/20 02:41:24;;;;;;;16.42;8.10;;;8.80;99.90;;;;;;4951113;29;20187;-79
2023/03/20 02:44:10;;;;;;;16.38;8.80;;;8.80;99.90;;;;;;4936872;29;20246;-77
2023/03/20 02:46:45;;;;;;;20.23;8.95;;;8.80;99.90;;;;;;4935629;29;20222;-80
2023/03/20 02:49:41;;;;;;;20.13;9.05;;;8.90;99.90;;;;;;4951182;29;20231;-77
2023/03/20 02:52:42;;;;;;;23.27;9.18;;;8.80;99.90;;;;;;4951016;29;20182;-80
2023/03/20 02:55:28;;;;;;;18.88;9.02;;;8.80;99.90;;;;;;4950325;29;20207;-81
2023/03/20 02:58:21;;;;;;;24.85;10.00;;;8.80;99.90;;;;;;4950286;29;20273;-77
2023/03/20 03:01:10;;;;;;;19.98;8.77;;;8.80;99.90;;;;;;4951336;28;20183;-83
2023/03/20 03:03:43;;;;;;;21.70;8.77;;;8.90;99.90;;;;;;4944791;28;20762;-78
2023/03/20 03:06:26;;;;;;;21.10;9.27;;;8.80;99.90;;;;;;4935974;29;20263;-80
2023/03/20 03:09:17;;;;;;;25.13;8.70;;;8.80;99.90;;;;;;4934591;29;20206;-77
2023/03/20 03:11:57;;;;;;;23.63;9.40;;;8.90;99.90;;;;;;4950796;29;20214;-79
2023/03/20 03:14:44;;;;;;;19.02;9.10;;;8.90;99.90;;;;;;4934867;29;20222;-74
2023/03/20 03:17:16;;;;;;;22.85;8.65;;;8.90;99.90;;;;;;4950752;29;20564;-75
2023/03/20 03:19:49;;;;;;;20.80;9.45;;;8.90;99.90;;;;;;4934417;29;20238;-76
2023/03/20 03:22:16;;;;;;;20.08;8.80;;;8.90;99.90;;;;;;4934765;29;20230;-77
2023/03/20 03:24:49;;;;;;;17.88;9.13;;;8.90;99.90;;;;;;4950360;28;20270;-76
2023/03/20 03:27:21;;;;;;;19.67;9.10;;;8.90;99.90;;;;;;4937256;29;20199;-76
2023/03/20 03:30:10;;;;;;;21.83;9.35;;;8.90;99.90;;;;;;4939842;29;20210;-75
2023/03/20 03:32:48;;;;;;;19.50;9.30;;;8.90;99.90;;;;;;4953766;29;20183;-77
2023/03/20 03:35:17;;;;;;;16.63;9.38;;;8.90;99.90;;;;;;4939702;29;20174;-76
2023/03/20 03:37:52;;;;;;;20.23;10.02;;;8.90;99.90;;;;;;4939240;29;20214;-77
2023/03/20 03:40:24;;;;;;;25.48;10.05;;;8.90;99.90;;;;;;4938191;29;20191;-75
2023/03/20 03:42:57;;;;;;;22.90;10.05;;;8.90;99.90;;;;;;4938210;28;20226;-77
2023/03/20 03:45:30;;;;;;;26.67;11.20;;;8.90;99.90;;;;;;4954089;29;20253;-77
2023/03/20 03:48:06;;;;;;;22.85;9.73;;;8.90;99.90;;;;;;4938600;29;20187;-76
2023/03/20 03:50:47;;;;;;;20.95;10.05;;;8.90;99.90;;;;;;4937909;29;20654;-76
2023/03/20 03:53:16;;;;;;;25.25;10.48;;;8.90;99.90;;;;;;4939074;29;20236;-76
2023/03/20 03:55:53;;;;;;;17.83;10.52;;;8.90;99.90;;;;;;4953561;28;20727;-75
2023/03/20 03:58:34;;;;;;;23.02;10.25;;;8.90;99.90;;;;;;4937914;29;20206;-76
2023/03/20 04:01:03;;;;;;;20.92;10.45;;;8.90;99.90;;;;;;4937773;29;20175;-76
2023/03/20 04:03:36;;;;;;;20.58;10.85;;;8.90;99.90;;;;;;4953480;28;20235;-77
2023/03/20 04:06:05;;;;;;;21.77;10.45;;;8.90;99.90;;;;;;4939054;29;20176;-78
2023/03/20 04:08:32;;;;;;;20.20;10.35;;;8.90;99.90;;;;;;4937532;28;20539;-76
2023/03/20 04:10:58;;;;;;;21.20;10.30;;;9.00;99.90;;;;;;4937665;29;20187;-75
2023/03/20 04:13:24;;;;;;;23.60;10.82;;;9.00;99.90;;;;;;4921642;29;20279;-75
2023/03/20 04:15:51;;;;;;;21.27;10.90;;;9.00;99.90;;;;;;4953972;29;20631;-75
2023/03/20 04:18:18;;;;;;;19.90;10.40;;;9.00;99.90;;;;;;4937122;29;20265;-75
2023/03/20 04:20:46;;;;;;;20.85;10.45;;;9.00;99.90;;;;;;4937011;29;20190;-79
2023/03/20 04:23:12;;;;;;;18.33;10.23;;;9.00;99.90;;;;;;4937245;29;20274;-76
2023/03/20 04:25:38;;;;;;;20.48;10.10;;;8.90;99.90;;;;;;4937191;29;20605;-76
2023/03/20 04:28:04;;;;;;;21.17;9.88;;;9.00;99.90;;;;;;4938557;29;20180;-75
2023/03/20 04:30:52;;;;;;;25.45;9.95;;;9.00;99.90;;;;;;4939396;29;20175;-76
2023/03/20 04:33:36;;;;;;;20.63;10.15;;;9.00;99.90;;;;;;4952927;29;20666;-77
2023/03/20 04:36:12;;;;;;;17.65;9.55;;;9.00;99.90;;;;;;4922699;29;20658;-75
2023/03/20 04:38:39;;;;;;;24.15;9.82;;;9.00;99.90;;;;;;4936317;29;20215;-79
2023/03/20 04:41:05;;;;;;;18.88;9.48;;;9.00;99.90;;;;;;4936622;29;20186;-76
2023/03/20 04:43:31;;;;;;;24.33;10.10;;;9.00;99.90;;;;;;4953059;29;20186;-77
2023/03/20 04:45:58;;;;;;;24.58;10.25;;;9.00;99.90;;;;;;4952874;28;20187;-76
2023/03/20 04:48:26;;;;;;;21.50;9.30;;;9.00;99.90;;;;;;4905324;29;20183;-78
2023/03/20 04:50:53;;;;;;;21.80;9.57;;;9.00;99.90;;;;;;4937228;29;20242;-75
2023/03/20 04:53:24;;;;;;;20.70;10.40;;;9.00;99.90;;;;;;4922310;29;20175;-76
2023/03/20 04:55:50;;;;;;;18.50;10.27;;;9.00;99.90;;;;;;4921550;29;20270;-77
2023/03/20 04:58:16;;;;;;;20.30;10.63;;;9.00;99.90;;;;;;4936413;29;20266;-75
2023/03/20 05:00:44;;;;;;;21.23;11.60;;;9.00;99.90;;;;;;4952377;28;20221;-78
2023/03/20 05:03:10;;;;;;;23.98;10.82;;;9.00;99.90;;;;;;4952255;28;20231;-75
2023/03/20 05:05:36;;;;;;;20.33;10.45;;;8.90;99.90;;;;;;4937881;29;20180;-81
2023/03/20 05:08:05;;;;;;;21.35;11.93;;;9.00;99.90;;;;;;4951900;28;20192;-76
2023/03/20 05:10:34;;;;;;;21.08;11.18;;;9.00;99.90;;;;;;4936781;29;20231;-76
2023/03/20 05:13:22;;;;;;;19.45;10.63;;;9.00;99.90;;;;;;4923609;29;20188;-76
2023/03/20 05:16:15;;;;;;;19.13;10.55;;;9.00;99.90;;;;;;4936029;29;20235;-77
2023/03/20 05:18:56;;;;;;;19.65;10.85;;;9.00;99.90;;;;;;4952333;28;20180;-80
2023/03/20 05:21:54;;;;;;;19.73;10.50;;;9.00;99.90;;;;;;4957084;28;20627;-76
2023/03/20 05:24:44;;;;;;;20.30;10.48;;;9.00;99.90;;;;;;4944524;28;20191;-75
2023/03/20 05:27:40;;;;;;;22.70;10.80;;;9.00;99.90;;;;;;4924132;29;20644;-74
2023/03/20 05:30:26;;;;;;;18.83;10.38;;;9.00;99.90;;;;;;4952381;28;20186;-73
2023/03/20 05:33:27;;;;;;;23.95;10.48;;;8.90;99.90;;;;;;4944720;28;20190;-74
2023/03/20 05:36:25;;;;;;;21.30;11.02;;;9.00;99.90;;;;;;4944577;28;20592;-77
2023/03/20 05:39:14;;;;;;;18.67;9.98;;;8.90;99.90;;;;;;4936068;29;20274;-76
2023/03/20 05:41:50;;;;;;;20.40;10.65;;;9.00;99.90;;;;;;4935770;29;20635;-74
2023/03/20 05:44:42;;;;;;;19.33;10.30;;;9.00;99.90;;;;;;4942504;29;20191;-74
2023/03/20 05:47:17;;;;;;;21.35;10.40;;;9.00;99.90;;;;;;4936858;29;20257;-74
2023/03/20 05:50:11;;;;;;;17.55;10.18;;;9.00;99.90;;;;;;4944516;28;20717;-78
2023/03/20 05:52:55;;;;;;;21.52;10.70;;;9.00;99.90;;;;;;4937319;29;20175;-75
2023/03/20 05:55:27;;;;;;;19.30;10.27;;;8.90;99.90;;;;;;4920528;29;20194;-75
2023/03/20 05:58:15;;;;;;;18.98;9.98;;;8.90;99.90;;;;;;4937200;29;20238;-74
2023/03/20 06:00:44;;;;;;;17.65;10.13;;;9.00;99.90;;;;;;4935355;29;20664;-74
2023/03/20 06:03:38;;;;;;;19.98;9.60;;;8.90;99.90;;;;;;4936969;29;20235;-73
2023/03/20 06:06:10;;;;;;;23.38;10.13;;;8.90;99.90;;;;;;4951535;28;20175;-77
2023/03/20 06:08:37;;;;;;;19.70;9.95;;;8.90;99.90;;;;;;4935856;29;20231;-73
2023/03/20 06:11:03;;;;;;;16.20;9.50;;;8.90;99.90;;;;;;4951679;29;20219;-78
2023/03/20 06:13:31;;;;;;;18.08;9.95;;;9.00;99.90;;;;;;4934729;29;20187;-73
2023/03/20 06:16:00;;;;;;;19.30;10.70;;;9.00;99.90;;;;;;4950938;29;20195;-74
2023/03/20 06:18:27;;;;;;;20.27;9.50;;;9.00;99.90;;;;;;4935635;29;20207;-74
2023/03/20 06:20:55;;;;;;;18.30;10.20;;;9.00;99.90;;;;;;4950931;29;20210;-79
2023/03/20 06:23:22;;;;;;;22.05;10.55;;;9.00;99.90;;;;;;4934923;29;20186;-74
2023/03/20 06:25:48;;;;;;;19.10;10.77;;;9.00;99.90;;;;;;4935914;29;20635;-76
2023/03/20 06:28:15;;;;;;;24.95;10.55;;;9.00;99.90;;;;;;4951066;28;20187;-75
2023/03/20 06:30:42;;;;;;;20.17;9.45;;;9.00;99.90;;;;;;4934909;29;20218;-75
2023/03/20 06:33:14;;;;;;;18.85;10.40;;;9.00;99.90;;;;;;4935073;29;20640;-75
2023/03/20 06:36:10;;;;;;;19.77;11.10;;;9.00;99.90;;;;;;4941120;28;20199;-79
2023/03/20 06:38:36;;;;;;;21.38;10.52;;;9.00;99.90;;;;;;4950712;29;20689;-75
2023/03/20 06:41:08;;;;;;;22.63;11.10;;;9.00;99.90;;;;;;4936257;29;20168;-75
2023/03/20 06:43:36;;;;;;;25.08;11.90;;;9.00;99.90;;;;;;4934787;29;20187;-75
2023/03/20 06:46:02;;;;;;;20.42;10.52;;;9.00;99.90;;;;;;4950951;29;20187;-75
2023/03/20 06:48:30;;;;;;;24.80;11.90;;;9.00;99.90;;;;;;4950976;28;20287;-76
2023/03/20 06:50:57;;;;;;;19.65;11.00;;;9.00;99.90;;;;;;4934402;29;20191;-76
2023/03/20 06:53:28;;;;;;;21.67;11.90;;;9.00;99.90;;;;;;4950912;29;20231;-75
2023/03/20 06:56:05;;;;;;;23.33;11.30;;;9.10;99.90;;;;;;4934804;29;20214;-74
2023/03/20 06:58:31;;;;;;;21.83;11.88;;;9.10;99.90;;;;;;4934424;29;20322;-74
2023/03/20 07:00:56;;;;;;;30.63;11.77;;;9.10;99.90;;;;;;4936456;29;20222;-73
2023/03/20 07:03:22;;;;;;;20.70;10.85;;;9.10;99.90;;;;;;4942324;29;20318;-74
2023/03/20 07:05:49;;;;;;;22.20;10.98;;;9.10;99.90;;;;;;4909459;29;20194;-76
2023/03/20 07:08:16;;;;;;;21.98;11.43;;;9.10;99.90;;;;;;4940966;29;20245;-74
2023/03/20 07:10:42;;;;;;;23.88;11.27;;;9.10;99.90;;;;;;4942567;29;20634;-76
2023/03/20 07:13:09;;;;;;;24.95;11.57;;;9.10;99.90;;;;;;4956719;28;20270;-75
2023/03/20 07:15:36;;;;;;;21.63;11.35;;;9.10;99.90;;;;;;4941074;29;20623;-74
2023/03/20 07:18:03;;;;;;;19.75;11.65;;;9.10;99.90;;;;;;4957424;28;20211;-76
2023/03/20 07:20:30;;;;;;;25.38;13.23;;;9.10;99.90;;;;;;4940952;29;20182;-75
2023/03/20 07:22:57;;;;;;;19.77;11.55;;;9.20;99.90;;;;;;4940969;29;20206;-75
2023/03/20 07:25:25;;;;;;;19.60;11.38;;;9.20;99.90;;;;;;4924721;29;20611;-77
2023/03/20 07:27:51;;;;;;;23.05;12.32;;;9.20;99.90;;;;;;4941484;29;20198;-75
2023/03/20 07:30:21;;;;;;;25.08;12.18;;;9.20;99.90;;;;;;4940544;29;20688;-76
2023/03/20 07:32:49;;;;;;;24.42;11.48;;;9.20;99.90;;;;;;4941316;28;20219;-77
2023/03/20 07:35:15;;;;;;;25.67;11.57;;;9.30;99.90;;;;;;4956519;28;20295;-75
2023/03/20 07:37:42;;;;;;;23.08;12.57;;;9.30;99.90;;;;;;4956770;28;20226;-76
2023/03/20 07:40:10;;;;;;;19.38;11.43;;;9.40;99.90;;;;;;4956575;29;20230;-76
2023/03/20 07:42:51;;;;;;;23.00;11.93;;;9.40;99.90;;;;;;4926554;29;20214;-77
2023/03/20 07:45:43;;;;;;;25.60;12.30;;;9.50;99.90;;;;;;4948158;28;20497;-75
2023/03/20 07:48:09;;;;;;;25.60;12.25;;;9.50;99.90;;;;;;4957626;28;20246;-75
2023/03/20 07:50:35;;;;;;;23.10;12.93;;;9.50;99.90;;;;;;4941928;29;20193;-80
2023/03/20 07:53:01;;;;;;;26.67;12.95;;;9.50;99.90;;;;;;4941324;29;20290;-81
2023/03/20 07:55:27;;;;;;;23.08;12.32;;;9.50;99.90;;;;;;4941772;29;20181;-79
2023/03/20 07:57:53;;;;;;;22.70;12.77;;;9.50;99.90;;;;;;4941312;29;20673;-75
2023/03/20 08:00:19;;;;;;;24.83;12.88;;;9.50;99.90;;;;;;4941932;29;20183;-75
2023/03/20 08:02:45;;;;;;;19.63;11.90;;;9.60;99.90;;;;;;4941374;29;20223;-75
2023/03/20 08:05:11;;;;;;;22.63;11.63;;;9.60;99.90;;;;;;4942171;29;20183;-75
2023/03/20 08:07:36;;;;;;;21.95;12.20;;;9.70;99.90;;;;;;4940334;29;20183;-76
2023/03/20 08:10:03;;;;;;;26.17;12.10;;;9.70;99.90;;;;;;4956045;29;20270;-75
2023/03/20 08:12:29;;;;;;;23.08;11.82;;;9.70;99.90;;;;;;4940261;29;20271;-75
2023/03/20 08:14:55;;;;;;;27.48;12.88;;;9.80;99.90;;;;;;4938685;29;20589;-75
2023/03/20 08:17:20;;;;;;;27.38;12.95;;;9.80;99.90;;;;;;4937215;29;20211;-83
2023/03/20 08:19:46;;;;;;;28.27;12.90;;;9.80;99.90;;;;;;4937863;29;20508;-75
2023/03/20 08:22:12;;;;;;;22.58;13.15;;;9.80;99.90;;;;;;4938596;29;20644;-75
2023/03/20 08:24:38;;;;;;;24.85;12.65;;;9.80;99.90;;;;;;4938130;29;20266;-75
2023/03/20 08:27:03;;;;;;;26.95;13.20;;;9.80;99.90;;;;;;4939201;29;20184;-75
2023/03/20 08:29:29;;;;;;;22.55;11.73;;;9.80;99.90;;;;;;4938024;29;20191;-76
2023/03/20 08:31:56;;;;;;;23.95;12.73;;;9.80;99.90;;;;;;4921896;29;20218;-74
2023/03/20 08:34:21;;;;;;;23.27;11.77;;;9.80;99.90;;;;;;4937670;29;20195;-75
2023/03/20 08:36:47;;;;;;;26.13;12.45;;;9.80;99.90;;;;;;4938201;29;20219;-76
2023/03/20 08:39:13;;;;;;;26.35;12.93;;;9.80;99.90;;;;;;4936531;29;20627;-77
2023/03/20 08:41:40;;;;;;;26.55;12.45;;;9.80;99.90;;;;;;4938401;29;20187;-75
2023/03/20 08:44:06;;;;;;;22.33;11.77;;;9.80;99.90;;;;;;4952751;28;20202;-76
2023/03/20 08:46:32;;;;;;;22.90;12.57;;;9.80;99.90;;;;;;4937829;29;20176;-75
2023/03/20 08:48:59;;;;;;;26.27;12.23;;;9.90;99.90;;;;;;4937836;29;20182;-83
2023/03/20 08:51:26;;;;;;;23.75;12.90;;;9.80;99.90;;;;;;4936975;29;20199;-75
2023/03/20 08:53:52;;;;;;;25.30;12.80;;;9.90;99.90;;;;;;4938100;29;20234;-76
2023/03/20 08:56:18;;;;;;;23.17;12.80;;;9.90;99.90;;;;;;4938147;29;20182;-74
2023/03/20 08:58:43;;;;;;;24.60;12.02;;;9.90;99.90;;;;;;4937648;29;20227;-75
2023/03/20 09:01:10;;;;;;;23.33;11.85;;;10.00;99.90;;;;;;4936391;29;20190;-75
2023/03/20 09:03:36;;;;;;;22.48;12.30;;;10.00;99.90;;;;;;4937793;29;20223;-75
2023/03/20 09:06:07;;;;;;;23.17;11.98;;;10.00;99.90;;;;;;4938198;29;20221;-75
2023/03/20 09:08:33;;;;;;;20.60;11.80;;;10.10;99.90;;;;;;4937908;29;20198;-75
2023/03/20 09:10:59;;;;;;;25.67;11.88;;;10.10;99.90;;;;;;4937729;29;20207;-75
2023/03/20 09:13:25;;;;;;;20.30;11.10;;;10.20;99.90;;;;;;4937082;29;20188;-75
2023/03/20 09:15:51;;;;;;;21.58;11.48;;;10.20;99.90;;;;;;4937507;29;20191;-75
2023/03/20 09:18:18;;;;;;;22.70;11.27;;;10.30;99.90;;;;;;4937521;29;20306;-75
2023/03/20 09:20:44;;;;;;;22.15;11.80;;;10.40;99.90;;;;;;4952096;28;20206;-75
2023/03/20 09:23:10;;;;;;;23.92;11.90;;;10.40;99.90;;;;;;4951854;29;20189;-76
2023/03/20 09:25:36;;;;;;;23.05;10.95;;;10.50;99.90;;;;;;4936930;29;20549;-75
2023/03/20 09:28:02;;;;;;;22.05;11.45;;;10.60;99.90;;;;;;4936983;29;20255;-75
2023/03/20 09:30:27;;;;;;;20.40;11.27;;;10.70;99.90;;;;;;4951708;29;20183;-76
2023/03/20 09:32:53;;;;;;;24.08;11.63;;;10.70;99.90;;;;;;4935974;29;20187;-75
2023/03/20 09:35:20;;;;;;;22.60;10.77;;;10.80;99.90;;;;;;4937096;29;20226;-76
2023/03/20 09:37:45;;;;;;;20.33;10.52;;;10.80;99.90;;;;;;4951652;28;20218;-74
2023/03/20 09:40:41;;;;;;;24.05;10.23;;;10.80;99.90;;;;;;4937249;29;20195;-74
2023/03/20 09:43:18;;;;;;;19.40;10.20;;;10.90;99.90;;;;;;4949052;28;20676;-76
2023/03/20 09:45:56;;;;;;;22.77;10.25;;;10.90;99.90;;;;;;4937179;29;20634;-75
2023/03/20 09:48:31;;;;;;;21.08;10.10;;;10.90;99.90;;;;;;4951734;28;20182;-76
2023/03/20 09:51:21;;;;;;;22.17;10.05;;;10.90;99.90;;;;;;4936648;29;20171;-75
2023/03/20 09:53:53;;;;;;;18.30;10.68;;;10.90;99.90;;;;;;4951713;29;20171;-78
2023/03/20 09:56:24;;;;;;;26.25;10.88;;;10.90;99.90;;;;;;4951615;28;20627;-75
2023/03/20 09:58:54;;;;;;;20.42;10.98;;;10.90;99.90;;;;;;4937063;29;20540;-74
2023/03/20 10:01:29;;;;;;;17.75;10.48;;;10.90;99.90;;;;;;4937486;29;20190;-75
2023/03/20 10:04:02;;;;;;;21.83;10.48;;;10.90;99.90;;;;;;4935538;29;20237;-74
2023/03/20 10:06:28;;;;;;;25.50;11.40;;;11.00;99.90;;;;;;4937488;29;20230;-76
2023/03/20 10:08:54;;;;;;;20.73;10.93;;;11.00;99.90;;;;;;4937330;29;20608;-75
2023/03/20 10:12:10;;;;;;;20.20;10.98;;;11.00;99.90;;;;;;4936373;29;20184;-75
2023/03/20 10:14:57;;;;;;;20.77;11.02;;;11.00;99.90;;;;;;4943543;29;20586;-75
2023/03/20 10:17:25;;;;;;;21.95;11.18;;;11.10;99.90;;;;;;4936223;29;20253;-75
2023/03/20 10:19:57;;;;;;;24.85;12.05;;;11.10;99.90;;;;;;4936236;29;20187;-74
2023/03/20 10:22:25;;;;;;;22.88;11.30;;;11.10;99.90;;;;;;4935507;29;20179;-75
2023/03/20 10:25:15;;;;;;;25.38;11.23;;;11.10;99.90;;;;;;4936159;29;20731;-76
2023/03/20 10:28:03;;;;;;;21.98;11.18;;;11.20;99.90;;;;;;4951342;29;20569;-76
2023/03/20 10:30:35;;;;;;;27.00;11.65;;;11.20;99.90;;;;;;4936141;29;20160;-75
2023/03/20 10:33:25;;;;;;;23.52;11.65;;;11.20;99.90;;;;;;4935111;29;20187;-76
2023/03/20 10:36:16;;;;;;;21.13;10.48;;;11.30;99.90;;;;;;4950836;28;20176;-75
2023/03/20 10:38:54;;;;;;;15.30;10.18;;;11.30;99.90;;;;;;4936443;29;20219;-83
2023/03/20 10:41:24;;;;;;;22.15;10.65;;;11.30;99.90;;;;;;4936147;29;20170;-75
2023/03/20 10:43:51;;;;;;;22.85;11.23;;;11.30;99.90;;;;;;4935575;29;20499;-75
2023/03/20 10:46:23;;;;;;;22.17;10.63;;;11.30;99.90;;;;;;4937263;29;20190;-75
2023/03/20 10:49:17;;;;;;;21.27;9.95;;;11.30;99.90;;;;;;4950717;29;20229;-74
2023/03/20 10:51:51;;;;;;;24.45;11.23;;;11.30;99.90;;;;;;4951064;28;20569;-77
2023/03/20 10:54:54;;;;;;;21.20;10.85;;;11.30;99.90;;;;;;4934746;29;20168;-75
2023/03/20 10:57:23;;;;;;;25.58;10.60;;;11.40;99.90;;;;;;4943359;29;20229;-75
2023/03/20 10:59:50;;;;;;;21.08;10.95;;;11.50;99.90;;;;;;4935804;29;20181;-76
2023/03/20 11:02:19;;;;;;;22.25;10.32;;;11.50;99.90;;;;;;4935612;29;20717;-76
2023/03/20 11:04:44;;;;;;;21.17;9.00;;;11.50;99.90;;;;;;4935855;29;20231;-76
2023/03/20 11:07:47;;;;;;;20.48;9.75;;;11.50;99.90;;;;;;4919405;29;20176;-76
2023/03/20 11:10:15;;;;;;;21.42;9.75;;;11.50;99.90;;;;;;4914972;29;20247;-74
2023/03/20 11:12:48;;;;;;;20.70;10.20;;;11.40;99.90;;;;;;4927331;29;20646;-79
2023/03/20 11:15:34;;;;;;;25.35;10.20;;;11.40;99.90;;;;;;4936438;29;20679;-76
2023/03/20 11:18:06;;;;;;;27.95;10.02;;;11.40;99.90;;;;;;4936667;29;20250;-75
2023/03/20 11:20:42;;;;;;;20.80;9.30;;;11.40;99.90;;;;;;4936174;29;20179;-76
2023/03/20 11:23:18;;;;;;;18.88;9.25;;;11.40;99.90;;;;;;4936157;29;20159;-75
2023/03/20 11:26:02;;;;;;;20.08;9.50;;;11.40;99.90;;;;;;4935913;29;20175;-74
2023/03/20 11:28:46;;;;;;;19.50;9.27;;;11.30;99.90;;;;;;4936143;29;20167;-75
2023/03/20 11:31:14;;;;;;;20.75;8.55;;;11.40;99.90;;;;;;4935454;29;20171;-77
2023/03/20 11:33:44;;;;;;;23.08;9.43;;;11.30;99.90;;;;;;4935591;29;20524;-73
2023/03/20 11:36:32;;;;;;;24.45;8.85;;;11.30;99.90;;;;;;4935615;29;20175;-74
2023/03/20 11:39:13;;;;;;;19.50;8.35;;;11.20;99.90;;;;;;4950887;29;20183;-79
2023/03/20 11:41:49;;;;;;;17.90;8.07;;;11.20;99.90;;;;;;4936178;29;20172;-75
2023/03/20 11:44:22;;;;;;;18.60;7.70;;;11.20;99.90;;;;;;4935292;29;20183;-74
2023/03/20 11:47:02;;;;;;;16.55;6.95;;;11.10;99.90;;;;;;4935455;29;20176;-77
2023/03/20 11:49:29;;;;;;;15.23;7.45;;;11.10;99.90;;;;;;4937283;29;20190;-74
2023/03/20 11:52:27;;;;;;;17.23;8.00;;;11.00;99.90;;;;;;4938907;29;20214;-75
2023/03/20 11:54:59;;;;;;;24.55;9.20;;;11.00;99.90;;;;;;4937603;29;20258;-77
2023/03/20 11:57:34;;;;;;;19.02;8.40;;;11.00;99.90;;;;;;4953932;29;20211;-75
2023/03/20 12:00:21;;;;;;;21.45;7.95;;;11.00;99.90;;;;;;4939045;29;20234;-74
2023/03/20 12:02:47;;;;;;;17.95;7.93;;;10.90;99.90;;;;;;4953013;28;20259;-77
2023/03/20 12:05:32;;;;;;;15.23;7.82;;;10.90;99.90;;;;;;4938916;29;20336;-74
2023/03/20 12:08:16;;;;;;;18.25;7.72;;;10.90;99.90;;;;;;4938083;29;20226;-74
2023/03/20 12:10:47;;;;;;;18.27;8.85;;;10.90;99.90;;;;;;4953578;29;20207;-77
2023/03/20 12:13:30;;;;;;;14.10;7.70;;;10.90;99.90;;;;;;4938836;29;20227;-74
2023/03/20 12:16:04;;;;;;;15.93;7.00;;;10.90;99.90;;;;;;4938684;29;20618;-74
2023/03/20 12:18:42;;;;;;;15.35;6.30;;;10.90;99.90;;;;;;4938925;29;20199;-75
2023/03/20 12:21:19;;;;;;;10.88;5.82;;;10.90;99.90;;;;;;4938537;29;20523;-74
2023/03/20 12:23:51;;;;;;;16.77;6.25;;;10.80;99.90;;;;;;4938099;29;20223;-74
2023/03/20 12:26:20;;;;;;;10.20;5.07;;;10.80;99.90;;;;;;4938138;29;20518;-75
2023/03/20 12:28:45;;;;;;;11.85;4.60;;;10.80;99.90;;;;;;4937831;29;20278;-74
2023/03/20 12:31:44;;;;;;;16.45;5.00;;;10.80;99.90;;;;;;4952712;29;20219;-75
2023/03/20 12:34:33;;;;;;;12.55;5.07;;;10.70;99.90;;;;;;4937122;29;20187;-74
2023/03/20 12:36:59;;;;;;;10.82;4.57;;;10.70;99.90;;;;;;4953626;29;20652;-75
2023/03/20 12:39:35;;;;;;;11.85;5.03;;;10.70;99.90;;;;;;4937913;29;20175;-74
2023/03/20 12:42:13;;;;;;;12.95;5.32;;;10.60;99.90;;;;;;4938030;29;20163;-75
2023/03/20 12:44:48;;;;;;;10.80;4.65;;;10.60;99.90;;;;;;4938367;29;20163;-74
2023/03/20 12:47:21;;;;;;;12.73;4.57;;;10.60;99.90;;;;;;4937844;29;20319;-75
2023/03/20 12:49:50;;;;;;;11.80;4.50;;;10.60;99.90;;;;;;4938428;29;20179;-75
2023/03/20 12:52:19;;;;;;;16.25;4.65;;;10.60;99.90;;;;;;4952988;28;20547;-75
2023/03/20 12:55:21;;;;;;;15.75;3.85;;;10.60;99.90;;;;;;4952963;29;20193;-75
2023/03/20 12:57:57;;;;;;;11.13;4.00;;;10.60;99.90;;;;;;4945723;28;20233;-75
2023/03/20 13:00:35;;;;;;;9.57;3.75;;;10.60;99.90;;;;;;4935663;29;20175;-75
2023/03/20 13:03:28;;;;;;;6.50;4.00;;;10.60;99.90;;;;;;4937254;29;20238;-75
2023/03/20 13:06:16;;;;;;;8.35;4.15;;;10.60;99.90;;;;;;4947242;29;20199;-75
2023/03/20 13:09:21;;;;;;;11.55;4.60;;;10.60;99.90;;;;;;4937821;29;20222;-73
2023/03/20 13:12:18;;;;;;;10.10;5.28;;;10.60;99.90;;;;;;4938597;29;20194;-75